sensor_id;sensor_type;location;lat;lon;timestamp;pressure;altitude;pressure_sealevel;temperature;humidity
11099;BME280;12223;42.650;23.364;2022-11-15T00:02:07;95272.81;;;3.05;100.00
11099;BME280;12223;42.650;23.364;2022-11-15T00:04:33;95274.78;;;3.11;100.00
11099;BME280;12223;42.650;23.364;2022-11-15T00:07:00;95281.47;;;3.14;100.00
11099;BME280;12223;42.650;23.364;2022-11-15T00:09:27;95280.16;;;3.10;100.00
11099;BME280;12223;42.650;23.364;2022-11-15T00:11:55;95269.03;;;2.92;100.00
11099;BME280;12223;42.650;23.364;2022-11-15T00:14:22;95263.34;;;2.96;100.00
11099;BME280;12223;42.650;23.364;2022-11-15T00:16:48;95265.78;;;2.90;100.00
11099;BME280;12223;42.650;23.364;2022-11-15T00:19:15;95234.78;;;2.87;100.00
11099;BME280;12223;42.650;23.364;2022-11-15T00:21:42;95255.66;;;2.87;100.00
11099;BME280;12223;42.650;23.364;2022-11-15T00:24:09;95250.13;;;2.81;100.00
11099;BME280;12223;42.650;23.364;2022-11-15T00:26:36;95239.53;;;2.91;100.00
11099;BME280;12223;42.650;23.364;2022-11-15T00:29:04;95229.78;;;3.01;100.00
11099;BME280;12223;42.650;23.364;2022-11-15T00:31:31;95236.44;;;3.12;100.00
11099;BME280;12223;42.650;23.364;2022-11-15T00:33:57;95234.81;;;3.11;100.00
11099;BME280;12223;42.650;23.364;2022-11-15T00:36:24;95239.72;;;3.06;100.00
11099;BME280;12223;42.650;23.364;2022-11-15T00:38:51;95231.56;;;3.09;100.00
11099;BME280;12223;42.650;23.364;2022-11-15T00:41:26;95233.03;;;3.03;100.00
11099;BME280;12223;42.650;23.364;2022-11-15T00:43:56;95229.91;;;2.92;100.00
11099;BME280;12223;42.650;23.364;2022-11-15T00:46:24;95224.84;;;2.82;100.00
11099;BME280;12223;42.650;23.364;2022-11-15T00:48:51;95232.69;;;2.98;100.00
11099;BME280;12223;42.650;23.364;2022-11-15T00:51:18;95236.75;;;2.84;100.00
11099;BME280;12223;42.650;23.364;2022-11-15T00:53:45;95227.63;;;2.80;100.00
11099;BME280;12223;42.650;23.364;2022-11-15T00:56:11;95225.19;;;2.95;100.00
11099;BME280;12223;42.650;23.364;2022-11-15T00:58:38;95227.97;;;3.02;100.00
11099;BME280;12223;42.650;23.364;2022-11-15T01:01:07;95222.91;;;3.00;100.00
11099;BME280;12223;42.650;23.364;2022-11-15T01:03:35;95225.03;;;3.05;100.00
11099;BME280;12223;42.650;23.364;2022-11-15T01:06:03;95212.31;;;3.10;100.00
11099;BME280;12223;42.650;23.364;2022-11-15T01:08:30;95222.13;;;3.08;100.00
11099;BME280;12223;42.650;23.364;2022-11-15T01:11:00;95219.19;;;3.03;100.00
11099;BME280;12223;42.650;23.364;2022-11-15T01:13:29;95216.75;;;3.09;100.00
11099;BME280;12223;42.650;23.364;2022-11-15T01:15:56;95228.63;;;3.04;100.00
11099;BME280;12223;42.650;23.364;2022-11-15T01:18:23;95224.84;;;2.98;100.00
11099;BME280;12223;42.650;23.364;2022-11-15T01:20:51;95224.03;;;2.98;100.00
11099;BME280;12223;42.650;23.364;2022-11-15T01:23:18;95225.84;;;2.97;100.00
11099;BME280;12223;42.650;23.364;2022-11-15T01:25:45;95220.47;;;2.99;100.00
11099;BME280;12223;42.650;23.364;2022-11-15T01:28:12;95219.66;;;3.06;100.00
11099;BME280;12223;42.650;23.364;2022-11-15T01:30:38;95211.34;;;3.03;100.00
11099;BME280;12223;42.650;23.364;2022-11-15T01:33:05;95196.16;;;2.98;100.00
11099;BME280;12223;42.650;23.364;2022-11-15T01:35:32;95215.09;;;3.08;100.00
11099;BME280;12223;42.650;23.364;2022-11-15T01:38:00;95217.34;;;2.87;100.00
11099;BME280;12223;42.650;23.364;2022-11-15T01:40:27;95213.13;;;2.94;100.00
11099;BME280;12223;42.650;23.364;2022-11-15T01:42:54;95220.94;;;2.86;100.00
11099;BME280;12223;42.650;23.364;2022-11-15T01:45:21;95230.22;;;2.80;100.00
11099;BME280;12223;42.650;23.364;2022-11-15T01:47:50;95228.91;;;2.76;100.00
11099;BME280;12223;42.650;23.364;2022-11-15T01:50:22;95225.97;;;2.79;100.00
11099;BME280;12223;42.650;23.364;2022-11-15T01:52:50;95220.13;;;2.77;100.00
11099;BME280;12223;42.650;23.364;2022-11-15T01:55:20;95217.97;;;2.73;100.00
11099;BME280;12223;42.650;23.364;2022-11-15T01:57:50;95216.97;;;2.66;100.00
11099;BME280;12223;42.650;23.364;2022-11-15T02:00:18;95210.97;;;2.65;100.00
11099;BME280;12223;42.650;23.364;2022-11-15T02:02:44;95202.34;;;2.81;100.00
11099;BME280;12223;42.650;23.364;2022-11-15T02:05:11;95205.59;;;2.75;100.00
11099;BME280;12223;42.650;23.364;2022-11-15T02:07:38;95202.84;;;2.76;100.00
11099;BME280;12223;42.650;23.364;2022-11-15T02:10:08;95205.13;;;2.79;100.00
11099;BME280;12223;42.650;23.364;2022-11-15T02:12:37;95208.69;;;2.78;100.00
11099;BME280;12223;42.650;23.364;2022-11-15T02:15:06;95216.84;;;2.75;100.00
11099;BME280;12223;42.650;23.364;2022-11-15T02:17:48;95212.41;;;2.52;100.00
11099;BME280;12223;42.650;23.364;2022-11-15T02:20:34;95206.75;;;2.64;100.00
11099;BME280;12223;42.650;23.364;2022-11-15T02:23:20;95197.94;;;2.73;100.00
11099;BME280;12223;42.650;23.364;2022-11-15T02:26:03;95207.56;;;2.81;100.00
11099;BME280;12223;42.650;23.364;2022-11-15T02:28:48;95209.06;;;2.83;100.00
11099;BME280;12223;42.650;23.364;2022-11-15T02:31:25;95212.94;;;2.71;100.00
11099;BME280;12223;42.650;23.364;2022-11-15T02:34:00;95205.91;;;2.64;100.00
11099;BME280;12223;42.650;23.364;2022-11-15T02:36:35;95196.13;;;2.58;100.00
11099;BME280;12223;42.650;23.364;2022-11-15T02:39:10;95199.72;;;2.73;100.00
11099;BME280;12223;42.650;23.364;2022-11-15T02:41:42;95204.94;;;2.73;100.00
11099;BME280;12223;42.650;23.364;2022-11-15T02:44:17;95197.09;;;2.57;100.00
11099;BME280;12223;42.650;23.364;2022-11-15T02:46:49;95201.00;;;2.53;100.00
11099;BME280;12223;42.650;23.364;2022-11-15T02:49:34;95205.09;;;2.63;100.00
11099;BME280;12223;42.650;23.364;2022-11-15T02:52:02;95220.59;;;2.73;100.00
11099;BME280;12223;42.650;23.364;2022-11-15T02:54:30;95214.22;;;2.67;100.00
11099;BME280;12223;42.650;23.364;2022-11-15T02:57:00;95215.84;;;2.52;100.00
11099;BME280;12223;42.650;23.364;2022-11-15T02:59:58;95213.91;;;2.62;100.00
11099;BME280;12223;42.650;23.364;2022-11-15T03:02:40;95215.69;;;2.62;100.00
11099;BME280;12223;42.650;23.364;2022-11-15T03:05:17;95211.63;;;2.67;100.00
11099;BME280;12223;42.650;23.364;2022-11-15T03:07:53;95204.59;;;2.60;100.00
11099;BME280;12223;42.650;23.364;2022-11-15T03:10:25;95205.75;;;2.73;100.00
11099;BME280;12223;42.650;23.364;2022-11-15T03:12:56;95203.00;;;2.75;100.00
11099;BME280;12223;42.650;23.364;2022-11-15T03:15:28;95204.63;;;2.92;100.00
11099;BME280;12223;42.650;23.364;2022-11-15T03:17:59;95209.38;;;3.13;100.00
11099;BME280;12223;42.650;23.364;2022-11-15T03:20:28;95201.25;;;3.08;100.00
11099;BME280;12223;42.650;23.364;2022-11-15T03:23:00;95225.03;;;3.13;100.00
11099;BME280;12223;42.650;23.364;2022-11-15T03:25:29;95221.28;;;3.32;100.00
11099;BME280;12223;42.650;23.364;2022-11-15T03:28:00;95219.19;;;3.27;100.00
11099;BME280;12223;42.650;23.364;2022-11-15T03:30:30;95219.00;;;3.20;100.00
11099;BME280;12223;42.650;23.364;2022-11-15T03:33:01;95221.78;;;3.19;100.00
11099;BME280;12223;42.650;23.364;2022-11-15T03:35:33;95211.31;;;3.35;100.00
11099;BME280;12223;42.650;23.364;2022-11-15T03:38:06;95206.91;;;3.36;100.00
11099;BME280;12223;42.650;23.364;2022-11-15T03:40:38;95206.25;;;3.50;100.00
11099;BME280;12223;42.650;23.364;2022-11-15T03:43:09;95203.81;;;3.56;100.00
11099;BME280;12223;42.650;23.364;2022-11-15T03:45:41;95211.47;;;3.58;100.00
11099;BME280;12223;42.650;23.364;2022-11-15T03:48:14;95214.91;;;3.67;100.00
11099;BME280;12223;42.650;23.364;2022-11-15T03:50:43;95208.88;;;3.66;100.00
11099;BME280;12223;42.650;23.364;2022-11-15T03:53:12;95201.00;;;3.74;100.00
11099;BME280;12223;42.650;23.364;2022-11-15T03:55:39;95202.97;;;3.72;100.00
11099;BME280;12223;42.650;23.364;2022-11-15T03:58:06;95192.00;;;3.85;100.00
11099;BME280;12223;42.650;23.364;2022-11-15T04:00:33;95206.19;;;3.90;100.00
11099;BME280;12223;42.650;23.364;2022-11-15T04:03:00;95216.03;;;3.72;100.00
11099;BME280;12223;42.650;23.364;2022-11-15T04:05:28;95215.88;;;3.66;100.00
11099;BME280;12223;42.650;23.364;2022-11-15T04:07:55;95197.13;;;3.30;100.00
11099;BME280;12223;42.650;23.364;2022-11-15T04:10:22;95190.63;;;3.34;100.00
11099;BME280;12223;42.650;23.364;2022-11-15T04:12:48;95189.97;;;3.23;100.00
11099;BME280;12223;42.650;23.364;2022-11-15T04:15:17;95192.41;;;3.33;100.00
11099;BME280;12223;42.650;23.364;2022-11-15T04:17:45;95182.31;;;3.14;100.00
11099;BME280;12223;42.650;23.364;2022-11-15T04:20:14;95189.94;;;3.48;100.00
11099;BME280;12223;42.650;23.364;2022-11-15T04:23:02;95191.91;;;3.30;100.00
11099;BME280;12223;42.650;23.364;2022-11-15T04:25:49;95189.16;;;3.23;100.00
11099;BME280;12223;42.650;23.364;2022-11-15T04:28:17;95170.56;;;2.94;100.00
11099;BME280;12223;42.650;23.364;2022-11-15T04:30:44;95157.19;;;3.05;100.00
11099;BME280;12223;42.650;23.364;2022-11-15T04:33:11;95149.69;;;2.69;100.00
11099;BME280;12223;42.650;23.364;2022-11-15T04:35:38;95136.31;;;2.80;100.00
11099;BME280;12223;42.650;23.364;2022-11-15T04:38:09;95141.56;;;2.97;100.00
11099;BME280;12223;42.650;23.364;2022-11-15T04:40:36;95141.22;;;2.92;100.00
11099;BME280;12223;42.650;23.364;2022-11-15T04:43:04;95134.03;;;3.18;100.00
11099;BME280;12223;42.650;23.364;2022-11-15T04:45:32;95102.06;;;3.16;100.00
11099;BME280;12223;42.650;23.364;2022-11-15T04:47:58;95135.97;;;3.40;100.00
11099;BME280;12223;42.650;23.364;2022-11-15T04:50:25;95134.19;;;3.33;100.00
11099;BME280;12223;42.650;23.364;2022-11-15T04:52:53;95126.16;;;3.42;100.00
11099;BME280;12223;42.650;23.364;2022-11-15T04:55:22;95126.66;;;3.38;100.00
11099;BME280;12223;42.650;23.364;2022-11-15T04:57:57;95125.69;;;3.39;100.00
11099;BME280;12223;42.650;23.364;2022-11-15T05:00:25;95126.94;;;3.51;100.00
11099;BME280;12223;42.650;23.364;2022-11-15T05:02:52;95128.44;;;3.53;100.00
11099;BME280;12223;42.650;23.364;2022-11-15T05:05:37;95131.84;;;3.54;100.00
11099;BME280;12223;42.650;23.364;2022-11-15T05:08:05;95132.00;;;3.52;100.00
11099;BME280;12223;42.650;23.364;2022-11-15T05:10:33;95135.28;;;3.46;100.00
11099;BME280;12223;42.650;23.364;2022-11-15T05:13:00;95129.56;;;3.43;100.00
11099;BME280;12223;42.650;23.364;2022-11-15T05:15:26;95133.97;;;3.42;100.00
11099;BME280;12223;42.650;23.364;2022-11-15T05:17:57;95137.72;;;3.48;100.00
11099;BME280;12223;42.650;23.364;2022-11-15T05:20:24;95135.31;;;3.38;100.00
11099;BME280;12223;42.650;23.364;2022-11-15T05:22:52;95127.63;;;3.45;100.00
11099;BME280;12223;42.650;23.364;2022-11-15T05:25:20;95145.03;;;3.60;100.00
11099;BME280;12223;42.650;23.364;2022-11-15T05:27:48;95142.78;;;3.49;100.00
11099;BME280;12223;42.650;23.364;2022-11-15T05:30:15;95133.31;;;3.48;100.00
11099;BME280;12223;42.650;23.364;2022-11-15T05:32:42;95134.66;;;3.36;100.00
11099;BME280;12223;42.650;23.364;2022-11-15T05:35:13;95135.97;;;3.40;100.00
11099;BME280;12223;42.650;23.364;2022-11-15T05:37:42;95140.69;;;3.45;100.00
11099;BME280;12223;42.650;23.364;2022-11-15T05:40:09;95138.56;;;3.32;100.00
11099;BME280;12223;42.650;23.364;2022-11-15T05:42:36;95132.38;;;3.33;100.00
11099;BME280;12223;42.650;23.364;2022-11-15T05:45:06;95142.47;;;3.36;100.00
11099;BME280;12223;42.650;23.364;2022-11-15T05:47:35;95141.63;;;3.52;100.00
11099;BME280;12223;42.650;23.364;2022-11-15T05:50:04;95135.28;;;3.46;100.00
11099;BME280;12223;42.650;23.364;2022-11-15T05:52:35;95124.84;;;3.46;100.00
11099;BME280;12223;42.650;23.364;2022-11-15T05:55:05;95148.97;;;3.56;100.00
11099;BME280;12223;42.650;23.364;2022-11-15T05:57:34;95152.56;;;3.55;100.00
11099;BME280;12223;42.650;23.364;2022-11-15T06:00:01;95149.72;;;3.73;100.00
11099;BME280;12223;42.650;23.364;2022-11-15T06:02:29;95159.31;;;3.89;100.00
11099;BME280;12223;42.650;23.364;2022-11-15T06:04:56;95165.00;;;4.00;100.00
11099;BME280;12223;42.650;23.364;2022-11-15T06:07:23;95177.41;;;3.98;100.00
11099;BME280;12223;42.650;23.364;2022-11-15T06:09:49;95157.47;;;3.50;100.00
11099;BME280;12223;42.650;23.364;2022-11-15T06:12:16;95155.25;;;3.86;100.00
11099;BME280;12223;42.650;23.364;2022-11-15T06:14:43;95159.72;;;4.17;100.00
11099;BME280;12223;42.650;23.364;2022-11-15T06:17:10;95167.63;;;4.31;100.00
11099;BME280;12223;42.650;23.364;2022-11-15T06:19:38;95182.81;;;4.36;100.00
11099;BME280;12223;42.650;23.364;2022-11-15T06:22:05;95176.69;;;4.52;100.00
11099;BME280;12223;42.650;23.364;2022-11-15T06:24:31;95180.66;;;4.70;100.00
11099;BME280;12223;42.650;23.364;2022-11-15T06:26:58;95181.91;;;4.74;100.00
11099;BME280;12223;42.650;23.364;2022-11-15T06:29:25;95178.28;;;4.83;100.00
11099;BME280;12223;42.650;23.364;2022-11-15T06:31:52;95180.38;;;4.88;100.00
11099;BME280;12223;42.650;23.364;2022-11-15T06:34:19;95165.84;;;4.85;100.00
11099;BME280;12223;42.650;23.364;2022-11-15T06:36:57;95180.75;;;5.00;100.00
11099;BME280;12223;42.650;23.364;2022-11-15T06:39:24;95181.66;;;4.92;100.00
11099;BME280;12223;42.650;23.364;2022-11-15T06:41:51;95175.00;;;4.81;100.00
11099;BME280;12223;42.650;23.364;2022-11-15T06:44:17;95172.91;;;4.77;100.00
11099;BME280;12223;42.650;23.364;2022-11-15T06:46:44;95157.22;;;4.77;100.00
11099;BME280;12223;42.650;23.364;2022-11-15T06:49:11;95143.31;;;4.76;100.00
11099;BME280;12223;42.650;23.364;2022-11-15T06:51:38;95145.63;;;4.94;100.00
11099;BME280;12223;42.650;23.364;2022-11-15T06:54:07;95162.66;;;5.13;100.00
11099;BME280;12223;42.650;23.364;2022-11-15T06:56:34;95179.69;;;5.17;100.00
11099;BME280;12223;42.650;23.364;2022-11-15T06:59:02;95172.81;;;5.16;100.00
11099;BME280;12223;42.650;23.364;2022-11-15T07:01:30;95181.41;;;5.02;100.00
11099;BME280;12223;42.650;23.364;2022-11-15T07:03:57;95172.22;;;5.29;100.00
11099;BME280;12223;42.650;23.364;2022-11-15T07:06:24;95182.91;;;5.42;100.00
11099;BME280;12223;42.650;23.364;2022-11-15T07:08:51;95185.16;;;5.45;100.00
11099;BME280;12223;42.650;23.364;2022-11-15T07:11:19;95189.50;;;5.52;100.00
11099;BME280;12223;42.650;23.364;2022-11-15T07:13:46;95182.84;;;5.50;100.00
11099;BME280;12223;42.650;23.364;2022-11-15T07:16:13;95185.91;;;5.53;100.00
11099;BME280;12223;42.650;23.364;2022-11-15T07:18:40;95143.78;;;5.40;100.00
11099;BME280;12223;42.650;23.364;2022-11-15T07:21:09;95179.66;;;5.69;100.00
11099;BME280;12223;42.650;23.364;2022-11-15T07:23:36;95183.66;;;5.65;100.00
11099;BME280;12223;42.650;23.364;2022-11-15T07:26:03;95180.88;;;5.66;100.00
11099;BME280;12223;42.650;23.364;2022-11-15T07:28:32;95176.72;;;5.72;100.00
11099;BME280;12223;42.650;23.364;2022-11-15T07:31:02;95181.22;;;5.78;100.00
11099;BME280;12223;42.650;23.364;2022-11-15T07:33:29;95181.16;;;5.86;100.00
11099;BME280;12223;42.650;23.364;2022-11-15T07:35:58;95186.84;;;5.75;100.00
11099;BME280;12223;42.650;23.364;2022-11-15T07:38:27;95191.41;;;5.58;100.00
11099;BME280;12223;42.650;23.364;2022-11-15T07:40:57;95164.66;;;5.48;100.00
11099;BME280;12223;42.650;23.364;2022-11-15T07:43:24;95151.63;;;5.40;100.00
11099;BME280;12223;42.650;23.364;2022-11-15T07:45:54;95171.16;;;5.52;100.00
11099;BME280;12223;42.650;23.364;2022-11-15T07:48:21;95148.47;;;5.45;100.00
11099;BME280;12223;42.650;23.364;2022-11-15T07:50:48;95157.63;;;5.63;100.00
11099;BME280;12223;42.650;23.364;2022-11-15T07:53:15;95163.94;;;5.69;100.00
11099;BME280;12223;42.650;23.364;2022-11-15T07:55:41;95152.31;;;5.86;100.00
11099;BME280;12223;42.650;23.364;2022-11-15T07:58:10;95165.16;;;5.96;100.00
11099;BME280;12223;42.650;23.364;2022-11-15T08:00:37;95171.31;;;6.03;100.00
11099;BME280;12223;42.650;23.364;2022-11-15T08:03:07;95178.94;;;6.13;100.00
11099;BME280;12223;42.650;23.364;2022-11-15T08:05:34;95186.22;;;6.02;100.00
11099;BME280;12223;42.650;23.364;2022-11-15T08:08:02;95182.97;;;6.15;100.00
11099;BME280;12223;42.650;23.364;2022-11-15T08:10:29;95181.34;;;6.29;100.00
11099;BME280;12223;42.650;23.364;2022-11-15T08:12:57;95187.66;;;6.20;100.00
11099;BME280;12223;42.650;23.364;2022-11-15T08:15:25;95184.59;;;6.31;100.00
11099;BME280;12223;42.650;23.364;2022-11-15T08:17:55;95189.72;;;6.39;100.00
11099;BME280;12223;42.650;23.364;2022-11-15T08:20:24;95177.34;;;6.47;100.00
11099;BME280;12223;42.650;23.364;2022-11-15T08:22:51;95178.72;;;6.43;100.00
11099;BME280;12223;42.650;23.364;2022-11-15T08:25:18;95190.03;;;6.65;100.00
11099;BME280;12223;42.650;23.364;2022-11-15T08:27:45;95189.31;;;6.71;100.00
11099;BME280;12223;42.650;23.364;2022-11-15T08:30:12;95185.59;;;6.80;100.00
11099;BME280;12223;42.650;23.364;2022-11-15T08:32:41;95178.94;;;6.84;100.00
11099;BME280;12223;42.650;23.364;2022-11-15T08:35:08;95191.34;;;6.91;100.00
11099;BME280;12223;42.650;23.364;2022-11-15T08:37:36;95194.78;;;6.91;100.00
11099;BME280;12223;42.650;23.364;2022-11-15T08:40:04;95182.47;;;6.92;100.00
11099;BME280;12223;42.650;23.364;2022-11-15T08:42:31;95192.84;;;7.21;100.00
11099;BME280;12223;42.650;23.364;2022-11-15T08:44:58;95189.72;;;7.11;100.00
11099;BME280;12223;42.650;23.364;2022-11-15T08:47:25;95188.47;;;7.07;100.00
11099;BME280;12223;42.650;23.364;2022-11-15T08:49:52;95192.91;;;7.06;100.00
11099;BME280;12223;42.650;23.364;2022-11-15T08:52:18;95182.09;;;6.95;100.00
11099;BME280;12223;42.650;23.364;2022-11-15T08:54:47;95174.66;;;6.98;100.00
11099;BME280;12223;42.650;23.364;2022-11-15T08:57:14;95161.16;;;7.01;100.00
11099;BME280;12223;42.650;23.364;2022-11-15T08:59:41;95175.66;;;7.18;100.00
11099;BME280;12223;42.650;23.364;2022-11-15T09:02:11;95168.66;;;7.25;100.00
11099;BME280;12223;42.650;23.364;2022-11-15T09:04:39;95163.81;;;7.29;100.00
11099;BME280;12223;42.650;23.364;2022-11-15T09:07:06;95164.38;;;7.46;100.00
11099;BME280;12223;42.650;23.364;2022-11-15T09:09:33;95157.97;;;7.83;100.00
11099;BME280;12223;42.650;23.364;2022-11-15T09:12:01;95165.44;;;7.86;100.00
11099;BME280;12223;42.650;23.364;2022-11-15T09:14:28;95159.19;;;7.87;100.00
11099;BME280;12223;42.650;23.364;2022-11-15T09:16:55;95151.06;;;7.82;100.00
11099;BME280;12223;42.650;23.364;2022-11-15T09:19:22;95158.09;;;8.02;100.00
11099;BME280;12223;42.650;23.364;2022-11-15T09:21:49;95159.78;;;8.23;100.00
11099;BME280;12223;42.650;23.364;2022-11-15T09:24:17;95153.25;;;8.40;100.00
11099;BME280;12223;42.650;23.364;2022-11-15T09:26:44;95153.69;;;8.51;100.00
11099;BME280;12223;42.650;23.364;2022-11-15T09:29:12;95150.88;;;8.59;100.00
11099;BME280;12223;42.650;23.364;2022-11-15T09:31:39;95143.63;;;8.74;100.00
11099;BME280;12223;42.650;23.364;2022-11-15T09:34:06;95132.50;;;8.78;100.00
11099;BME280;12223;42.650;23.364;2022-11-15T09:36:32;95125.22;;;8.94;100.00
11099;BME280;12223;42.650;23.364;2022-11-15T09:39:00;95144.28;;;8.96;100.00
11099;BME280;12223;42.650;23.364;2022-11-15T09:41:48;95132.09;;;8.88;100.00
11099;BME280;12223;42.650;23.364;2022-11-15T09:44:39;95130.31;;;9.15;100.00
11099;BME280;12223;42.650;23.364;2022-11-15T09:47:21;95129.72;;;9.33;100.00
11099;BME280;12223;42.650;23.364;2022-11-15T09:49:54;95120.38;;;9.43;100.00
11099;BME280;12223;42.650;23.364;2022-11-15T09:52:23;95113.09;;;9.52;100.00
11099;BME280;12223;42.650;23.364;2022-11-15T09:54:51;95118.16;;;9.73;100.00
11099;BME280;12223;42.650;23.364;2022-11-15T09:57:21;95116.28;;;9.87;100.00
11099;BME280;12223;42.650;23.364;2022-11-15T10:00:00;95111.41;;;9.97;100.00
11099;BME280;12223;42.650;23.364;2022-11-15T10:02:44;95115.25;;;9.94;100.00
11099;BME280;12223;42.650;23.364;2022-11-15T10:05:19;95102.91;;;9.82;100.00
11099;BME280;12223;42.650;23.364;2022-11-15T10:07:50;95103.53;;;8.98;100.00
11099;BME280;12223;42.650;23.364;2022-11-15T10:10:27;95101.94;;;8.84;100.00
11099;BME280;12223;42.650;23.364;2022-11-15T10:12:57;95090.59;;;8.97;100.00
11099;BME280;12223;42.650;23.364;2022-11-15T10:15:26;95084.31;;;8.91;100.00
11099;BME280;12223;42.650;23.364;2022-11-15T10:18:06;95087.75;;;8.78;100.00
11099;BME280;12223;42.650;23.364;2022-11-15T10:20:44;95077.00;;;8.93;100.00
11099;BME280;12223;42.650;23.364;2022-11-15T10:23:14;95078.81;;;8.86;100.00
11099;BME280;12223;42.650;23.364;2022-11-15T10:25:42;95079.63;;;8.86;100.00
11099;BME280;12223;42.650;23.364;2022-11-15T10:28:14;95078.44;;;8.96;100.00
11099;BME280;12223;42.650;23.364;2022-11-15T10:30:45;95068.91;;;9.14;100.00
11099;BME280;12223;42.650;23.364;2022-11-15T10:33:26;95062.22;;;9.18;100.00
11099;BME280;12223;42.650;23.364;2022-11-15T10:36:15;95052.09;;;9.28;100.00
11099;BME280;12223;42.650;23.364;2022-11-15T10:38:54;95044.38;;;9.34;100.00
11099;BME280;12223;42.650;23.364;2022-11-15T10:41:28;95048.63;;;9.41;100.00
11099;BME280;12223;42.650;23.364;2022-11-15T10:44:09;95037.44;;;9.59;100.00
11099;BME280;12223;42.650;23.364;2022-11-15T10:46:40;95023.06;;;9.48;100.00
11099;BME280;12223;42.650;23.364;2022-11-15T10:49:13;95032.13;;;9.72;100.00
11099;BME280;12223;42.650;23.364;2022-11-15T10:51:42;95032.94;;;9.73;100.00
11099;BME280;12223;42.650;23.364;2022-11-15T10:54:11;95025.72;;;9.28;100.00
11099;BME280;12223;42.650;23.364;2022-11-15T10:56:40;95018.66;;;9.03;100.00
11099;BME280;12223;42.650;23.364;2022-11-15T10:59:15;95013.78;;;8.93;100.00
11099;BME280;12223;42.650;23.364;2022-11-15T11:01:47;95019.25;;;8.72;100.00
11099;BME280;12223;42.650;23.364;2022-11-15T11:04:15;95010.72;;;8.57;100.00
11099;BME280;12223;42.650;23.364;2022-11-15T11:06:49;95002.63;;;8.52;100.00
11099;BME280;12223;42.650;23.364;2022-11-15T11:09:30;94999.00;;;8.53;100.00
11099;BME280;12223;42.650;23.364;2022-11-15T11:11:58;94997.38;;;8.65;100.00
11099;BME280;12223;42.650;23.364;2022-11-15T11:14:29;94991.50;;;8.56;100.00
11099;BME280;12223;42.650;23.364;2022-11-15T11:17:03;94988.84;;;8.43;100.00
11099;BME280;12223;42.650;23.364;2022-11-15T11:19:56;94984.00;;;8.40;100.00
11099;BME280;12223;42.650;23.364;2022-11-15T11:22:32;94982.16;;;8.54;100.00
11099;BME280;12223;42.650;23.364;2022-11-15T11:25:19;94977.13;;;8.78;100.00
11099;BME280;12223;42.650;23.364;2022-11-15T11:28:02;94974.47;;;8.98;100.00
11099;BME280;12223;42.650;23.364;2022-11-15T11:30:43;94917.59;;;8.44;100.00
11099;BME280;12223;42.650;23.364;2022-11-15T11:33:17;94962.94;;;8.66;100.00
11099;BME280;12223;42.650;23.364;2022-11-15T11:35:51;94947.56;;;8.50;100.00
11099;BME280;12223;42.650;23.364;2022-11-15T11:38:37;94943.09;;;8.31;100.00
11099;BME280;12223;42.650;23.364;2022-11-15T11:41:13;94935.91;;;7.98;100.00
11099;BME280;12223;42.650;23.364;2022-11-15T11:43:51;94927.66;;;8.08;100.00
11099;BME280;12223;42.650;23.364;2022-11-15T11:46:47;94925.63;;;8.17;100.00
11099;BME280;12223;42.650;23.364;2022-11-15T11:49:20;94921.41;;;8.35;100.00
11099;BME280;12223;42.650;23.364;2022-11-15T11:51:53;94912.31;;;8.31;100.00
11099;BME280;12223;42.650;23.364;2022-11-15T11:54:25;94909.69;;;8.31;100.00
11099;BME280;12223;42.650;23.364;2022-11-15T11:57:00;94915.56;;;8.40;100.00
11099;BME280;12223;42.650;23.364;2022-11-15T11:59:32;94908.06;;;8.57;100.00
11099;BME280;12223;42.650;23.364;2022-11-15T12:02:11;94906.25;;;8.64;100.00
11099;BME280;12223;42.650;23.364;2022-11-15T12:04:45;94899.16;;;8.77;100.00
11099;BME280;12223;42.650;23.364;2022-11-15T12:07:20;94905.00;;;8.86;100.00
11099;BME280;12223;42.650;23.364;2022-11-15T12:09:53;94891.22;;;8.91;100.00
11099;BME280;12223;42.650;23.364;2022-11-15T12:12:27;94889.41;;;8.91;100.00
11099;BME280;12223;42.650;23.364;2022-11-15T12:15:01;94881.88;;;8.95;100.00
11099;BME280;12223;42.650;23.364;2022-11-15T12:17:30;94872.38;;;8.87;100.00
11099;BME280;12223;42.650;23.364;2022-11-15T12:20:02;94881.09;;;8.87;100.00
11099;BME280;12223;42.650;23.364;2022-11-15T12:22:38;94877.25;;;8.90;100.00
11099;BME280;12223;42.650;23.364;2022-11-15T12:25:08;94880.66;;;9.10;100.00
11099;BME280;12223;42.650;23.364;2022-11-15T12:27:44;94863.63;;;9.00;100.00
11099;BME280;12223;42.650;23.364;2022-11-15T12:30:16;94866.66;;;9.16;100.00
11099;BME280;12223;42.650;23.364;2022-11-15T12:32:51;94868.63;;;9.27;100.00
11099;BME280;12223;42.650;23.364;2022-11-15T12:35:26;94860.16;;;9.12;100.00
11099;BME280;12223;42.650;23.364;2022-11-15T12:37:54;94861.38;;;9.16;100.00
11099;BME280;12223;42.650;23.364;2022-11-15T12:40:36;94848.03;;;8.98;100.00
11099;BME280;12223;42.650;23.364;2022-11-15T12:46:20;94853.59;;;9.35;100.00
11099;BME280;12223;42.650;23.364;2022-11-15T12:48:53;94845.25;;;9.38;100.00
11099;BME280;12223;42.650;23.364;2022-11-15T12:57:35;94846.13;;;9.63;100.00
11099;BME280;12223;42.650;23.364;2022-11-15T13:03:28;94837.00;;;9.65;100.00
11099;BME280;12223;42.650;23.364;2022-11-15T13:06:09;94830.19;;;9.51;100.00
11099;BME280;12223;42.650;23.364;2022-11-15T13:08:56;94835.16;;;9.35;100.00
11099;BME280;12223;42.650;23.364;2022-11-15T13:11:50;94828.06;;;9.35;100.00
11099;BME280;12223;42.650;23.364;2022-11-15T13:14:43;94832.44;;;9.48;100.00
11099;BME280;12223;42.650;23.364;2022-11-15T13:17:23;94829.38;;;9.51;100.00
11099;BME280;12223;42.650;23.364;2022-11-15T13:19:55;94829.59;;;9.43;100.00
11099;BME280;12223;42.650;23.364;2022-11-15T13:22:24;94827.09;;;9.61;100.00